Terminal Aerodrome Forecast
Issued by NWS St Louis, MO

Home | Current Version | Previous Version | Text Only | Print | Product List | Glossary On
Versions: 1 2 3 4 5 6 7 8 9 10 11 12 13 14 15 16 17 18 19 20 21
000
FTUS43 KLSX 181120
TAFCOU
TAF
KCOU 181120Z 1812/1912 VRB04KT P6SM OVC008
     FM181600 18006KT P6SM OVC012
     FM182000 18006KT P6SM SCT150
     FM190500 15004KT P6SM BKN090
     FM190600 VRB03KT P6SM BKN025
     FM190800 14004KT P6SM VCSH SCT008 OVC015=

USA.gov is the U.S. government's official web portal to all federal, state and local government web resources and services.